createdAt,value
2022-10-13T00:00:11.527Z,6.31
2022-10-13T00:02:39.756Z,6.15
2022-10-13T00:05:08.091Z,5.54
2022-10-13T00:07:34.892Z,5.59
2022-10-13T00:10:02.852Z,5.01
2022-10-13T00:12:29.837Z,4.64
2022-10-13T00:14:58.312Z,7.74
2022-10-13T00:17:25.058Z,7.07
2022-10-13T00:19:55.608Z,5.08
2022-10-13T00:22:22.396Z,5.42
2022-10-13T00:24:51.927Z,5.77
2022-10-13T00:27:18.718Z,4.42
2022-10-13T00:29:46.146Z,4.17
2022-10-13T00:32:13.247Z,4.07
2022-10-13T00:34:41.237Z,3.89
2022-10-13T00:37:10.522Z,3.66
2022-10-13T00:39:38.101Z,3.74
2022-10-13T00:42:06.519Z,4.56
2022-10-13T00:45:02.805Z,5.62
2022-10-13T00:47:36.416Z,6.67
2022-10-13T00:50:04.986Z,5.52
2022-10-13T00:52:33.568Z,5.40
2022-10-13T00:55:02.657Z,5.36
2022-10-13T00:57:29.727Z,5.32
2022-10-13T00:59:57.666Z,5.39
2022-10-13T01:02:31.492Z,5.40
2022-10-13T01:04:59.646Z,5.51
2022-10-13T01:07:27.925Z,5.83
2022-10-13T01:09:56.466Z,6.33
2022-10-13T01:12:36.072Z,4.73
2022-10-13T01:15:10.299Z,8.59
2022-10-13T01:17:47.547Z,7.20
2022-10-13T01:20:41.858Z,6.23
2022-10-13T01:23:36.959Z,5.03
2022-10-13T01:26:28.975Z,7.76
2022-10-13T01:29:15.029Z,6.71
2022-10-13T01:31:49.373Z,5.75
2022-10-13T01:36:55.133Z,4.55
2022-10-13T01:39:27.316Z,4.54
2022-10-13T01:42:01.940Z,5.29
2022-10-13T01:44:36.888Z,4.94
2022-10-13T01:47:07.551Z,5.05
2022-10-13T01:49:35.871Z,4.44
2022-10-13T01:52:07.336Z,5.80
2022-10-13T01:54:34.251Z,5.13
2022-10-13T01:57:02.193Z,6.03
2022-10-13T01:59:33.264Z,4.98
2022-10-13T02:02:09.670Z,5.34
2022-10-13T02:04:45.782Z,5.20
2022-10-13T02:07:19.854Z,5.20
2022-10-13T02:09:56.259Z,4.62
2022-10-13T02:12:27.744Z,5.52
2022-10-13T02:14:56.811Z,4.43
2022-10-13T02:17:27.648Z,4.42
2022-10-13T02:19:55.602Z,4.38
2022-10-13T02:22:29.672Z,5.16
2022-10-13T02:24:56.866Z,6.32
2022-10-13T02:27:24.026Z,6.20
2022-10-13T02:29:53.004Z,5.74
2022-10-13T02:32:20.845Z,5.86
2022-10-13T02:34:49.765Z,5.41
2022-10-13T02:37:17.340Z,6.16
2022-10-13T02:39:44.329Z,5.93
2022-10-13T02:42:11.281Z,5.38
2022-10-13T02:44:38.144Z,5.50
2022-10-13T02:47:05.248Z,7.32
2022-10-13T02:49:32.101Z,6.31
2022-10-13T02:52:01.256Z,6.99
2022-10-13T02:54:29.492Z,8.47
2022-10-13T02:56:56.349Z,6.48
2022-10-13T02:59:23.118Z,7.00
2022-10-13T03:01:50.228Z,7.73
2022-10-13T03:04:17.184Z,7.60
2022-10-13T03:06:44.116Z,7.15
2022-10-13T03:09:12.303Z,5.90
2022-10-13T03:11:39.143Z,6.22
2022-10-13T03:14:05.910Z,5.95
2022-10-13T03:16:32.919Z,5.88
2022-10-13T03:18:59.695Z,5.80
2022-10-13T03:21:27.530Z,5.38
2022-10-13T03:23:54.270Z,5.07
2022-10-13T03:26:22.551Z,6.03
2022-10-13T03:28:49.981Z,4.86
2022-10-13T03:31:17.775Z,4.10
2022-10-13T03:33:48.106Z,4.60
2022-10-13T03:36:14.859Z,4.64
2022-10-13T03:38:42.937Z,4.82
2022-10-13T03:41:15.055Z,5.60
2022-10-13T03:43:44.363Z,5.87
2022-10-13T03:46:12.382Z,6.74
2022-10-13T03:48:39.559Z,6.36
2022-10-13T03:51:07.582Z,6.08
2022-10-13T03:53:35.397Z,4.74
2022-10-13T03:56:02.855Z,4.85
2022-10-13T03:58:30.507Z,5.75
2022-10-13T04:01:03.113Z,5.20
2022-10-13T04:03:30.251Z,8.31
2022-10-13T04:06:00.839Z,6.93
2022-10-13T04:08:27.732Z,6.50
2022-10-13T04:10:58.962Z,5.35
2022-10-13T04:13:25.973Z,5.91
2022-10-13T04:15:52.937Z,5.00
2022-10-13T04:18:22.186Z,4.54
2022-10-13T04:20:49.112Z,4.59
2022-10-13T04:23:15.904Z,4.10
2022-10-13T04:25:42.759Z,3.59
2022-10-13T04:28:11.706Z,4.02
2022-10-13T04:30:38.596Z,4.92
2022-10-13T04:33:06.165Z,4.17
2022-10-13T04:35:39.261Z,5.14
2022-10-13T04:38:06.012Z,4.20
2022-10-13T04:40:34.083Z,4.82
2022-10-13T04:43:01.831Z,5.24
2022-10-13T04:45:29.062Z,4.68
2022-10-13T04:47:57.074Z,5.29
2022-10-13T04:50:24.257Z,4.10
2022-10-13T04:52:52.561Z,3.96
2022-10-13T04:55:19.321Z,5.79
2022-10-13T04:57:46.139Z,5.51
2022-10-13T05:00:13.875Z,5.17
2022-10-13T05:02:41.762Z,4.83
2022-10-13T05:05:09.643Z,5.46
2022-10-13T05:07:36.466Z,4.93
2022-10-13T05:10:05.278Z,5.47
2022-10-13T05:12:32.468Z,5.04
2022-10-13T05:14:59.235Z,5.36
2022-10-13T05:17:26.085Z,5.69
2022-10-13T05:19:52.842Z,6.99
2022-10-13T05:22:20.035Z,7.39
2022-10-13T05:24:47.000Z,8.11
2022-10-13T05:27:15.947Z,8.68
2022-10-13T05:29:42.701Z,7.91
2022-10-13T05:32:09.915Z,7.87
2022-10-13T05:34:36.782Z,7.64
2022-10-13T05:37:03.526Z,7.49
2022-10-13T05:39:31.882Z,6.79
2022-10-13T05:41:58.904Z,5.80
2022-10-13T05:44:27.179Z,5.28
2022-10-13T05:46:54.017Z,5.05
2022-10-13T05:49:22.089Z,5.45
2022-10-13T05:51:52.774Z,6.27
2022-10-13T05:54:23.159Z,6.72
2022-10-13T05:56:54.092Z,6.95
2022-10-13T05:59:27.282Z,5.82
2022-10-13T06:01:56.337Z,5.11
2022-10-13T06:04:29.255Z,4.34
2022-10-13T06:06:57.150Z,4.54
2022-10-13T06:09:24.103Z,5.99
2022-10-13T06:11:52.129Z,4.75
2022-10-13T06:14:19.096Z,4.00
2022-10-13T06:16:46.292Z,3.23
2022-10-13T06:19:14.912Z,5.03
2022-10-13T06:21:41.708Z,4.54
2022-10-13T06:24:08.754Z,5.01
2022-10-13T06:26:35.749Z,6.78
2022-10-13T06:29:02.596Z,5.98
2022-10-13T06:31:29.531Z,5.14
2022-10-13T06:33:56.619Z,5.57
2022-10-13T06:36:25.041Z,4.38
2022-10-13T06:38:52.157Z,3.54
2022-10-13T06:41:19.244Z,4.73
2022-10-13T06:43:46.292Z,6.55
2022-10-13T06:46:13.359Z,7.42
2022-10-13T06:48:40.429Z,5.55
2022-10-13T06:51:09.736Z,5.56
2022-10-13T06:53:39.286Z,5.48
2022-10-13T06:56:07.698Z,5.00
2022-10-13T06:58:35.013Z,5.22
2022-10-13T07:01:02.590Z,4.90
2022-10-13T07:03:29.508Z,4.43
2022-10-13T07:06:00.764Z,4.36
2022-10-13T07:08:27.833Z,5.73
2022-10-13T07:10:56.157Z,4.44
2022-10-13T07:13:23.242Z,3.58
2022-10-13T07:15:50.095Z,4.36
2022-10-13T07:18:17.143Z,4.12
2022-10-13T07:20:44.193Z,3.23
2022-10-13T07:23:11.411Z,4.68
2022-10-13T07:25:38.182Z,4.37
2022-10-13T07:28:07.368Z,3.91
2022-10-13T07:30:34.319Z,3.54
2022-10-13T07:33:01.071Z,4.12
2022-10-13T07:35:30.919Z,3.39
2022-10-13T07:37:58.248Z,3.37
2022-10-13T07:40:26.268Z,3.71
2022-10-13T07:42:53.299Z,4.17
2022-10-13T07:45:21.710Z,3.48
2022-10-13T07:47:48.615Z,3.51
2022-10-13T07:50:15.631Z,2.83
2022-10-13T07:52:44.000Z,3.68
2022-10-13T07:55:11.000Z,3.59
2022-10-13T07:57:37.784Z,4.59
2022-10-13T08:00:06.390Z,4.03
2022-10-13T08:02:34.589Z,3.66
2022-10-13T08:05:03.198Z,2.84
2022-10-13T08:07:30.990Z,3.39
2022-10-13T08:09:58.019Z,3.60
2022-10-13T08:12:25.488Z,4.04
2022-10-13T08:14:52.313Z,3.40
2022-10-13T08:17:19.547Z,2.97
2022-10-13T08:19:48.004Z,4.06
2022-10-13T08:22:15.209Z,4.05
2022-10-13T08:24:42.180Z,4.72
2022-10-13T08:27:11.479Z,4.06
2022-10-13T08:29:38.336Z,3.49
2022-10-13T08:32:05.683Z,3.84
2022-10-13T08:34:33.003Z,4.23
2022-10-13T08:37:03.508Z,2.97
2022-10-13T08:39:30.615Z,3.51
2022-10-13T08:41:57.872Z,3.95
2022-10-13T08:47:35.584Z,5.13
2022-10-13T08:50:07.320Z,4.16
2022-10-13T08:52:47.123Z,3.51
2022-10-13T08:55:24.744Z,3.80
2022-10-13T08:57:52.688Z,3.26
2022-10-13T09:00:19.820Z,3.83
2022-10-13T09:02:54.326Z,3.74
2022-10-13T09:05:36.445Z,3.34
2022-10-13T09:08:14.733Z,4.12
2022-10-13T09:10:48.847Z,3.35
2022-10-13T09:15:46.001Z,4.15
2022-10-13T09:18:14.222Z,3.18
2022-10-13T09:20:41.522Z,6.90
2022-10-13T09:23:19.066Z,5.47
2022-10-13T09:25:48.865Z,4.54
2022-10-13T09:28:21.607Z,4.30
2022-10-13T09:31:02.990Z,3.21
2022-10-13T09:33:33.875Z,3.82
2022-10-13T09:36:11.671Z,3.16
2022-10-13T09:38:41.408Z,3.86
2022-10-13T09:41:15.738Z,3.20
2022-10-13T09:46:19.232Z,5.62
2022-10-13T09:48:50.742Z,4.09
2022-10-13T09:51:32.917Z,3.17
2022-10-13T09:54:01.238Z,2.93
2022-10-13T09:56:34.898Z,3.82
2022-10-13T09:59:10.962Z,3.72
2022-10-13T10:01:42.095Z,3.32
2022-10-13T10:04:16.383Z,3.70
2022-10-13T10:06:45.386Z,4.61
2022-10-13T10:09:28.638Z,4.53
2022-10-13T10:11:58.936Z,3.92
2022-10-13T10:14:27.380Z,3.51
2022-10-13T10:17:03.891Z,3.69
2022-10-13T10:19:46.626Z,4.93
2022-10-13T10:22:21.402Z,4.03
2022-10-13T10:24:57.380Z,3.40
2022-10-13T10:27:29.807Z,4.59
2022-10-13T10:30:01.997Z,4.55
2022-10-13T10:32:39.996Z,4.34
2022-10-13T10:35:13.734Z,3.79
2022-10-13T10:38:07.292Z,3.66
2022-10-13T10:40:46.459Z,3.22
2022-10-13T10:43:42.927Z,3.79
2022-10-13T10:46:16.106Z,3.46
2022-10-13T10:48:45.334Z,4.06
2022-10-13T10:51:13.950Z,3.83
2022-10-13T10:53:51.819Z,3.68
2022-10-13T10:56:31.062Z,4.01
2022-10-13T10:59:07.073Z,3.91
2022-10-13T11:01:40.501Z,3.49
2022-10-13T11:04:32.937Z,3.96
2022-10-13T11:06:59.958Z,4.43
2022-10-13T11:10:02.103Z,6.10
2022-10-13T11:13:01.736Z,4.76
2022-10-13T11:15:40.694Z,4.44
2022-10-13T11:18:40.757Z,4.68
2022-10-13T11:21:09.576Z,4.47
2022-10-13T11:23:45.042Z,3.47
2022-10-13T11:26:42.535Z,3.18
2022-10-13T11:29:39.668Z,4.94
2022-10-13T11:32:42.533Z,4.41
2022-10-13T11:35:20.324Z,4.71
2022-10-13T11:38:07.407Z,14.47
2022-10-13T11:40:45.865Z,15.00
2022-10-13T11:43:29.600Z,11.37
2022-10-13T11:46:20.086Z,9.83
2022-10-13T11:49:22.899Z,7.75
2022-10-13T11:52:10.573Z,6.39
2022-10-13T11:54:43.247Z,4.97
2022-10-13T11:57:19.417Z,3.92
2022-10-13T11:59:48.210Z,3.43
2022-10-13T12:02:19.125Z,3.34
2022-10-13T12:05:00.850Z,3.98
2022-10-13T12:07:34.312Z,3.46
2022-10-13T12:10:04.864Z,3.32
2022-10-13T12:12:32.035Z,3.68
2022-10-13T12:15:01.292Z,3.54
2022-10-13T12:17:34.239Z,3.51
2022-10-13T12:20:05.000Z,2.72
2022-10-13T12:22:36.805Z,3.12
2022-10-13T12:25:07.619Z,3.04
2022-10-13T12:27:46.780Z,3.81
2022-10-13T12:30:21.296Z,3.64
2022-10-13T12:32:50.174Z,3.60
2022-10-13T12:35:19.225Z,2.98
2022-10-13T12:37:48.674Z,2.71
2022-10-13T12:40:18.070Z,3.11
2022-10-13T12:42:47.364Z,4.43
2022-10-13T12:45:17.081Z,4.54
2022-10-13T12:47:49.605Z,4.05
2022-10-13T12:50:39.121Z,5.19
2022-10-13T12:53:16.944Z,4.03
2022-10-13T12:55:51.576Z,3.89
2022-10-13T12:58:21.666Z,3.61
2022-10-13T13:00:57.427Z,3.55
2022-10-13T13:03:29.132Z,3.25
2022-10-13T13:06:22.878Z,3.97
2022-10-13T13:09:22.062Z,3.53
2022-10-13T13:12:04.098Z,2.76
2022-10-13T13:14:38.767Z,2.53
2022-10-13T13:17:10.065Z,2.62
2022-10-13T13:19:37.325Z,3.57
2022-10-13T13:22:04.748Z,6.51
2022-10-13T13:24:39.873Z,5.69
2022-10-13T13:27:34.159Z,5.36
2022-10-13T13:30:01.311Z,4.02
2022-10-13T13:32:28.465Z,3.62
2022-10-13T13:34:55.256Z,3.52
2022-10-13T13:37:29.875Z,4.57
2022-10-13T13:39:57.109Z,5.47
2022-10-13T13:42:29.310Z,4.28
2022-10-13T13:44:57.380Z,3.30
2022-10-13T13:47:26.307Z,3.00
2022-10-13T13:49:54.645Z,39.49
2022-10-13T13:52:22.137Z,28.60
2022-10-13T13:54:49.756Z,17.61
2022-10-13T13:57:18.935Z,11.29
2022-10-13T13:59:47.494Z,7.35
2022-10-13T14:02:18.161Z,5.70
2022-10-13T14:04:45.413Z,4.09
2022-10-13T14:07:12.617Z,4.37
2022-10-13T14:09:39.563Z,3.91
2022-10-13T14:12:08.727Z,3.24
2022-10-13T14:14:35.608Z,4.35
2022-10-13T14:17:05.187Z,3.80
2022-10-13T14:19:32.635Z,3.44
2022-10-13T14:22:00.132Z,3.41
2022-10-13T14:24:28.171Z,3.58
2022-10-13T14:26:54.940Z,3.38
2022-10-13T14:29:22.245Z,3.20
2022-10-13T14:31:49.387Z,3.63
2022-10-13T14:34:18.098Z,5.68
2022-10-13T14:36:45.122Z,5.17
2022-10-13T14:39:12.156Z,4.53
2022-10-13T14:41:38.917Z,4.35
2022-10-13T14:44:05.955Z,4.29
2022-10-13T14:46:32.707Z,4.09
2022-10-13T14:49:00.655Z,4.82
2022-10-13T14:51:28.896Z,4.90
2022-10-13T14:53:55.757Z,4.27
2022-10-13T14:56:24.107Z,4.82
2022-10-13T14:58:52.824Z,4.27
2022-10-13T15:01:21.578Z,4.31
2022-10-13T15:03:48.677Z,4.73
2022-10-13T15:06:17.756Z,4.96
2022-10-13T15:08:48.179Z,5.01
2022-10-13T15:11:17.891Z,5.19
2022-10-13T15:13:45.391Z,5.91
2022-10-13T15:16:16.798Z,6.78
2022-10-13T15:18:43.878Z,6.27
2022-10-13T15:21:11.530Z,6.13
2022-10-13T15:23:39.159Z,4.83
2022-10-13T15:26:08.771Z,3.06
2022-10-13T15:28:38.841Z,2.70
2022-10-13T15:31:06.962Z,2.65
2022-10-13T15:33:34.303Z,3.22
2022-10-13T15:36:02.785Z,3.95
2022-10-13T15:38:30.111Z,3.84
2022-10-13T15:40:59.824Z,3.92
2022-10-13T15:43:29.630Z,3.38
2022-10-13T15:46:00.158Z,2.71
2022-10-13T15:48:27.346Z,1.93
2022-10-13T15:50:54.112Z,1.84
2022-10-13T15:53:21.413Z,3.06
2022-10-13T15:55:48.747Z,3.54
2022-10-13T15:58:18.594Z,3.16
2022-10-13T16:00:46.804Z,2.78
2022-10-13T16:03:15.141Z,3.11
2022-10-13T16:05:43.079Z,2.46
2022-10-13T16:08:10.069Z,2.52
2022-10-13T16:10:39.062Z,3.87
2022-10-13T16:13:05.986Z,5.04
2022-10-13T16:15:32.777Z,4.22
2022-10-13T16:18:01.161Z,2.80
2022-10-13T16:20:28.100Z,2.72
2022-10-13T16:22:55.406Z,2.42
2022-10-13T16:25:22.162Z,1.97
2022-10-13T16:27:49.344Z,2.16
2022-10-13T16:30:16.644Z,1.71
2022-10-13T16:32:43.723Z,2.05
2022-10-13T16:35:17.754Z,2.31
2022-10-13T16:37:44.523Z,1.96
2022-10-13T16:40:11.586Z,1.57
2022-10-13T16:42:38.397Z,1.37
2022-10-13T16:45:07.516Z,1.89
2022-10-13T16:47:34.310Z,1.66
2022-10-13T16:50:02.287Z,1.57
2022-10-13T16:52:30.840Z,1.08
2022-10-13T16:54:58.865Z,1.35
2022-10-13T16:57:25.894Z,0.95
2022-10-13T16:59:52.795Z,0.79
2022-10-13T17:02:19.631Z,1.62
2022-10-13T17:04:47.804Z,2.08
2022-10-13T17:07:14.515Z,1.78
2022-10-13T17:09:42.807Z,2.30
2022-10-13T17:12:09.632Z,3.45
2022-10-13T17:14:36.849Z,2.64
2022-10-13T17:17:03.814Z,2.20
2022-10-13T17:19:30.561Z,2.31
2022-10-13T17:21:58.753Z,2.60
2022-10-13T17:24:25.541Z,2.36
2022-10-13T17:26:53.786Z,2.29
2022-10-13T17:29:20.637Z,1.76
2022-10-13T17:31:47.960Z,2.01
2022-10-13T17:34:14.700Z,1.32
2022-10-13T17:36:42.649Z,1.57
2022-10-13T17:39:13.321Z,2.51
2022-10-13T17:41:41.852Z,1.49
2022-10-13T17:44:11.080Z,1.13
2022-10-13T17:46:39.267Z,1.46
2022-10-13T17:49:07.825Z,1.29
2022-10-13T17:51:34.967Z,1.15
2022-10-13T17:54:01.905Z,0.89
2022-10-13T17:56:29.262Z,1.05
2022-10-13T17:58:57.434Z,0.83
2022-10-13T18:01:28.219Z,1.25
2022-10-13T18:03:57.207Z,1.56
2022-10-13T18:06:24.579Z,1.07
2022-10-13T18:08:52.247Z,0.68
2022-10-13T18:11:21.270Z,1.06
2022-10-13T18:13:48.906Z,1.18
2022-10-13T18:16:18.127Z,1.26
2022-10-13T18:18:47.626Z,1.71
2022-10-13T18:21:15.519Z,2.14
2022-10-13T18:23:43.061Z,1.67
2022-10-13T18:26:13.106Z,1.35
2022-10-13T18:28:44.197Z,1.21
2022-10-13T18:31:13.356Z,1.71
2022-10-13T18:33:41.559Z,1.72
2022-10-13T18:36:16.891Z,2.42
2022-10-13T18:38:45.158Z,2.20
2022-10-13T18:41:12.902Z,3.08
2022-10-13T18:43:39.864Z,2.36
2022-10-13T18:46:06.911Z,2.40
2022-10-13T18:48:34.041Z,1.81
2022-10-13T18:51:05.390Z,1.60
2022-10-13T18:53:34.593Z,1.64
2022-10-13T18:56:03.621Z,1.69
2022-10-13T18:58:31.453Z,1.59
2022-10-13T19:01:02.646Z,1.44
2022-10-13T19:03:31.015Z,2.13
2022-10-13T19:05:58.039Z,1.87
2022-10-13T19:08:28.646Z,1.77
2022-10-13T19:10:57.696Z,1.94
2022-10-13T19:13:24.982Z,1.86
2022-10-13T19:15:53.456Z,3.04
2022-10-13T19:18:20.390Z,4.19
2022-10-13T19:20:47.511Z,4.57
2022-10-13T19:23:15.179Z,2.93
2022-10-13T19:25:44.141Z,2.79
2022-10-13T19:28:12.934Z,2.46
2022-10-13T19:30:40.231Z,2.05
2022-10-13T19:33:09.241Z,2.98
2022-10-13T19:35:39.595Z,2.92
2022-10-13T19:38:07.247Z,2.57
2022-10-13T19:40:36.010Z,2.58
2022-10-13T19:43:06.932Z,3.24
2022-10-13T19:45:36.663Z,2.29
2022-10-13T19:48:03.851Z,1.93
2022-10-13T19:50:33.145Z,2.45
2022-10-13T19:52:59.967Z,2.38
2022-10-13T19:55:26.750Z,2.54
2022-10-13T19:57:53.760Z,2.54
2022-10-13T20:00:20.860Z,2.47
2022-10-13T20:02:50.506Z,3.62
2022-10-13T20:05:19.920Z,3.48
2022-10-13T20:07:52.381Z,2.91
2022-10-13T20:10:20.592Z,2.87
2022-10-13T20:12:51.845Z,2.47
2022-10-13T20:15:18.946Z,3.05
2022-10-13T20:17:46.076Z,3.54
2022-10-13T20:20:22.151Z,3.30
2022-10-13T20:22:49.584Z,3.65
2022-10-13T20:25:17.474Z,2.79
2022-10-13T20:27:44.233Z,3.13
2022-10-13T20:30:11.878Z,2.83
2022-10-13T20:32:38.618Z,2.84
2022-10-13T20:35:07.103Z,2.27
2022-10-13T20:37:35.528Z,2.47
2022-10-13T20:40:04.839Z,3.38
2022-10-13T20:42:31.633Z,3.11
2022-10-13T20:44:58.365Z,2.43
2022-10-13T20:47:25.255Z,3.39
2022-10-13T20:49:52.134Z,3.06
2022-10-13T20:52:18.904Z,4.45
2022-10-13T20:54:47.359Z,6.38
2022-10-13T20:57:14.178Z,5.53
2022-10-13T20:59:44.110Z,6.23
2022-10-13T21:02:14.333Z,5.95
2022-10-13T21:04:41.030Z,4.55
2022-10-13T21:07:09.435Z,3.32
2022-10-13T21:09:36.340Z,4.07
2022-10-13T21:12:06.090Z,5.72
2022-10-13T21:14:33.124Z,4.20
2022-10-13T21:17:00.179Z,4.98
2022-10-13T21:19:26.924Z,3.58
2022-10-13T21:21:54.043Z,3.50
2022-10-13T21:24:20.902Z,3.35
2022-10-13T21:26:48.592Z,4.34
2022-10-13T21:29:17.006Z,5.33
2022-10-13T21:31:44.011Z,4.67
2022-10-13T21:34:11.157Z,4.38
2022-10-13T21:36:38.183Z,5.29
2022-10-13T21:39:05.710Z,4.96
2022-10-13T21:41:33.255Z,3.58
2022-10-13T21:44:00.760Z,3.26
2022-10-13T21:46:30.862Z,2.82
2022-10-13T21:48:59.128Z,4.39
2022-10-13T21:51:28.123Z,6.04
2022-10-13T21:53:56.633Z,4.71
2022-10-13T21:56:24.345Z,3.82
2022-10-13T21:58:51.525Z,3.67
2022-10-13T22:01:20.045Z,3.81
2022-10-13T22:03:53.723Z,3.22
2022-10-13T22:06:20.771Z,4.63
2022-10-13T22:08:49.306Z,3.83
2022-10-13T22:11:16.916Z,3.86
2022-10-13T22:13:43.957Z,4.11
2022-10-13T22:16:13.402Z,5.16
2022-10-13T22:18:40.702Z,6.48
2022-10-13T22:21:12.268Z,6.14
2022-10-13T22:23:39.240Z,5.91
2022-10-13T22:26:07.144Z,6.12
2022-10-13T22:28:37.261Z,6.42
2022-10-13T22:31:05.786Z,4.92
2022-10-13T22:33:34.896Z,3.81
2022-10-13T22:36:08.157Z,4.79
2022-10-13T22:38:35.048Z,4.40
2022-10-13T22:41:03.870Z,4.21
2022-10-13T22:43:30.769Z,4.35
2022-10-13T22:45:57.925Z,3.39
2022-10-13T22:48:25.448Z,3.84
2022-10-13T22:50:52.951Z,3.45
2022-10-13T22:53:21.290Z,3.92
2022-10-13T22:55:48.211Z,3.15
2022-10-13T22:58:17.341Z,3.27
2022-10-13T23:00:47.567Z,3.95
2022-10-13T23:03:14.753Z,3.15
2022-10-13T23:05:47.025Z,3.37
2022-10-13T23:08:13.823Z,4.09
2022-10-13T23:10:44.991Z,4.44
2022-10-13T23:13:11.776Z,3.79
2022-10-13T23:15:39.561Z,4.57
2022-10-13T23:18:06.643Z,4.90
2022-10-13T23:20:33.450Z,4.69
2022-10-13T23:23:00.533Z,3.96
2022-10-13T23:25:27.389Z,5.24
2022-10-13T23:27:59.167Z,5.06
2022-10-13T23:30:27.262Z,4.13
2022-10-13T23:32:54.290Z,3.75
2022-10-13T23:35:22.373Z,4.81
2022-10-13T23:37:53.574Z,5.50
2022-10-13T23:40:20.773Z,4.56
2022-10-13T23:42:47.983Z,5.21
2022-10-13T23:45:18.465Z,5.25
2022-10-13T23:47:45.456Z,4.84
2022-10-13T23:50:12.209Z,4.10
2022-10-13T23:52:40.447Z,4.80
2022-10-13T23:55:07.971Z,5.18
2022-10-13T23:57:35.751Z,3.75
